sensor_id;sensor_type;location;lat;lon;timestamp;pressure;altitude;pressure_sealevel;temperature;humidity
19831;BME280;10076;52.008;4.708;2023-08-06T00:01:22;100456.69;;;17.72;100.00
19831;BME280;10076;52.008;4.708;2023-08-06T00:03:48;100455.06;;;17.79;100.00
19831;BME280;10076;52.008;4.708;2023-08-06T00:06:13;100453.34;;;17.70;100.00
19831;BME280;10076;52.008;4.708;2023-08-06T00:08:38;100456.19;;;17.77;100.00
19831;BME280;10076;52.008;4.708;2023-08-06T00:11:04;100457.91;;;17.86;100.00
19831;BME280;10076;52.008;4.708;2023-08-06T00:13:29;100455.06;;;17.87;100.00
19831;BME280;10076;52.008;4.708;2023-08-06T00:15:54;100457.75;;;17.95;100.00
19831;BME280;10076;52.008;4.708;2023-08-06T00:18:20;100451.75;;;18.01;100.00
19831;BME280;10076;52.008;4.708;2023-08-06T00:20:45;100454.41;;;17.93;100.00
19831;BME280;10076;52.008;4.708;2023-08-06T00:23:10;100452.91;;;17.99;100.00
19831;BME280;10076;52.008;4.708;2023-08-06T00:25:36;100453.41;;;17.94;100.00
19831;BME280;10076;52.008;4.708;2023-08-06T00:28:01;100450.69;;;17.86;100.00
19831;BME280;10076;52.008;4.708;2023-08-06T00:30:27;100462.03;;;17.80;100.00
19831;BME280;10076;52.008;4.708;2023-08-06T00:32:52;100457.22;;;17.76;100.00
19831;BME280;10076;52.008;4.708;2023-08-06T00:35:17;100456.34;;;17.67;100.00
19831;BME280;10076;52.008;4.708;2023-08-06T00:37:43;100457.22;;;17.76;100.00
19831;BME280;10076;52.008;4.708;2023-08-06T00:40:08;100457.38;;;17.82;100.00
19831;BME280;10076;52.008;4.708;2023-08-06T00:42:34;100452.69;;;17.76;100.00
19831;BME280;10076;52.008;4.708;2023-08-06T00:45:00;100446.50;;;17.68;100.00
19831;BME280;10076;52.008;4.708;2023-08-06T00:47:25;100458.00;;;17.60;100.00
19831;BME280;10076;52.008;4.708;2023-08-06T00:49:51;100455.19;;;17.78;100.00
19831;BME280;10076;52.008;4.708;2023-08-06T00:52:16;100455.41;;;17.92;100.00
19831;BME280;10076;52.008;4.708;2023-08-06T00:54:42;100467.06;;;17.83;100.00
19831;BME280;10076;52.008;4.708;2023-08-06T00:57:09;100456.19;;;17.77;100.00
19831;BME280;10076;52.008;4.708;2023-08-06T00:59:34;100456.69;;;17.80;100.00
19831;BME280;10076;52.008;4.708;2023-08-06T01:02:00;100456.91;;;17.87;100.00
19831;BME280;10076;52.008;4.708;2023-08-06T01:04:25;100454.38;;;17.85;100.00
19831;BME280;10076;52.008;4.708;2023-08-06T01:10:05;100457.38;;;17.82;100.00
19831;BME280;10076;52.008;4.708;2023-08-06T01:17:38;100453.16;;;17.72;100.00
19831;BME280;10076;52.008;4.708;2023-08-06T01:20:04;100444.38;;;17.79;100.00
19831;BME280;10076;52.008;4.708;2023-08-06T01:22:30;100449.03;;;17.85;100.00
19831;BME280;10076;52.008;4.708;2023-08-06T01:24:55;100445.88;;;17.90;100.00
19831;BME280;10076;52.008;4.708;2023-08-06T01:27:28;100448.03;;;17.78;100.00
19831;BME280;10076;52.008;4.708;2023-08-06T01:30:16;100444.16;;;17.73;100.00
19831;BME280;10076;52.008;4.708;2023-08-06T01:32:45;100456.69;;;17.72;100.00
19831;BME280;10076;52.008;4.708;2023-08-06T01:35:12;100454.03;;;17.72;100.00
19831;BME280;10076;52.008;4.708;2023-08-06T01:37:39;100453.03;;;17.73;100.00
19831;BME280;10076;52.008;4.708;2023-08-06T01:40:09;100457.03;;;17.77;100.00
19831;BME280;10076;52.008;4.708;2023-08-06T01:42:35;100456.53;;;17.74;100.00
19831;BME280;10076;52.008;4.708;2023-08-06T01:45:00;100462.03;;;17.80;100.00
19831;BME280;10076;52.008;4.708;2023-08-06T01:47:25;100466.41;;;17.89;100.00
19831;BME280;10076;52.008;4.708;2023-08-06T01:49:50;100464.41;;;17.83;100.00
19831;BME280;10076;52.008;4.708;2023-08-06T01:52:16;100470.91;;;17.81;100.00
19831;BME280;10076;52.008;4.708;2023-08-06T01:54:41;100470.09;;;17.88;100.00
19831;BME280;10076;52.008;4.708;2023-08-06T01:57:06;100477.75;;;17.91;100.00
19831;BME280;10076;52.008;4.708;2023-08-06T01:59:32;100479.78;;;17.97;100.00
19831;BME280;10076;52.008;4.708;2023-08-06T02:01:57;100478.78;;;17.90;100.00
19831;BME280;10076;52.008;4.708;2023-08-06T02:04:22;100480.94;;;17.87;100.00
19831;BME280;10076;52.008;4.708;2023-08-06T02:06:48;100481.94;;;17.86;100.00
19831;BME280;10076;52.008;4.708;2023-08-06T02:09:13;100485.63;;;17.93;100.00
19831;BME280;10076;52.008;4.708;2023-08-06T02:11:38;100482.09;;;17.92;100.00
19831;BME280;10076;52.008;4.708;2023-08-06T02:14:03;100491.13;;;17.91;100.00
19831;BME280;10076;52.008;4.708;2023-08-06T02:16:29;100479.31;;;17.94;100.00
19831;BME280;10076;52.008;4.708;2023-08-06T02:18:54;100478.78;;;17.90;100.00
19831;BME280;10076;52.008;4.708;2023-08-06T02:21:19;100486.97;;;17.97;100.00
19831;BME280;10076;52.008;4.708;2023-08-06T02:23:45;100483.47;;;17.96;100.00
19831;BME280;10076;52.008;4.708;2023-08-06T02:26:10;100486.28;;;17.95;100.00
19831;BME280;10076;52.008;4.708;2023-08-06T02:28:35;100482.44;;;17.97;100.00
19831;BME280;10076;52.008;4.708;2023-08-06T02:31:01;100479.31;;;17.94;100.00
19831;BME280;10076;52.008;4.708;2023-08-06T02:33:26;100486.97;;;17.97;100.00
19831;BME280;10076;52.008;4.708;2023-08-06T02:35:58;100484.47;;;18.03;100.00
19831;BME280;10076;52.008;4.708;2023-08-06T02:38:24;100486.16;;;18.04;100.00
19831;BME280;10076;52.008;4.708;2023-08-06T02:40:49;100490.00;;;18.09;100.00
19831;BME280;10076;52.008;4.708;2023-08-06T02:43:14;100490.84;;;18.10;100.00
19831;BME280;10076;52.008;4.708;2023-08-06T02:45:40;100486.16;;;18.04;100.00
19831;BME280;10076;52.008;4.708;2023-08-06T02:48:05;100485.50;;;18.02;100.00
19831;BME280;10076;52.008;4.708;2023-08-06T02:50:31;100486.63;;;17.99;100.00
19831;BME280;10076;52.008;4.708;2023-08-06T02:52:56;100487.13;;;18.03;100.00
19831;BME280;10076;52.008;4.708;2023-08-06T02:55:21;100494.34;;;18.02;100.00
19831;BME280;10076;52.008;4.708;2023-08-06T02:57:47;100491.31;;;17.98;100.00
19831;BME280;10076;52.008;4.708;2023-08-06T03:00:12;100487.44;;;17.92;100.00
19831;BME280;10076;52.008;4.708;2023-08-06T03:02:38;100493.13;;;17.97;100.00
19831;BME280;10076;52.008;4.708;2023-08-06T03:05:03;100491.13;;;17.91;100.00
19831;BME280;10076;52.008;4.708;2023-08-06T03:07:29;100485.28;;;17.96;100.00
19831;BME280;10076;52.008;4.708;2023-08-06T03:09:55;100480.94;;;17.95;100.00
19831;BME280;10076;52.008;4.708;2023-08-06T03:12:20;100494.66;;;17.99;100.00
19831;BME280;10076;52.008;4.708;2023-08-06T03:14:45;100489.50;;;18.06;100.00
19831;BME280;10076;52.008;4.708;2023-08-06T03:17:11;100490.16;;;18.00;100.00
19831;BME280;10076;52.008;4.708;2023-08-06T03:19:36;100486.50;;;18.09;100.00
19831;BME280;10076;52.008;4.708;2023-08-06T03:22:01;100485.13;;;17.97;100.00
19831;BME280;10076;52.008;4.708;2023-08-06T03:24:27;100490.63;;;17.96;100.00
19831;BME280;10076;52.008;4.708;2023-08-06T03:26:52;100487.16;;;17.95;100.00
19831;BME280;10076;52.008;4.708;2023-08-06T03:29:17;100484.44;;;17.87;100.00
19831;BME280;10076;52.008;4.708;2023-08-06T03:31:43;100484.44;;;17.87;100.00
19831;BME280;10076;52.008;4.708;2023-08-06T03:34:08;100490.47;;;17.89;100.00
19831;BME280;10076;52.008;4.708;2023-08-06T03:36:33;100496.16;;;17.94;100.00
19831;BME280;10076;52.008;4.708;2023-08-06T03:38:58;100498.34;;;17.99;100.00
19831;BME280;10076;52.008;4.708;2023-08-06T03:41:24;100495.63;;;17.91;100.00
19831;BME280;10076;52.008;4.708;2023-08-06T03:43:49;100497.31;;;17.92;100.00
19831;BME280;10076;52.008;4.708;2023-08-06T03:46:14;100490.00;;;17.94;100.00
19831;BME280;10076;52.008;4.708;2023-08-06T03:48:40;100500.81;;;17.84;100.00
19831;BME280;10076;52.008;4.708;2023-08-06T03:51:05;100495.31;;;17.94;100.00
19831;BME280;10076;52.008;4.708;2023-08-06T03:53:30;100495.81;;;17.89;100.00
19831;BME280;10076;52.008;4.708;2023-08-06T03:55:56;100498.78;;;17.86;100.00
19831;BME280;10076;52.008;4.708;2023-08-06T03:58:25;100501.81;;;17.83;100.00
19831;BME280;10076;52.008;4.708;2023-08-06T04:00:58;100503.94;;;17.80;100.00
19831;BME280;10076;52.008;4.708;2023-08-06T04:03:23;100504.78;;;17.80;100.00
19831;BME280;10076;52.008;4.708;2023-08-06T04:05:49;100517.31;;;17.80;100.00
19831;BME280;10076;52.008;4.708;2023-08-06T04:08:14;100510.88;;;18.06;100.00
19831;BME280;10076;52.008;4.708;2023-08-06T04:10:39;100511.88;;;18.05;100.00
19831;BME280;10076;52.008;4.708;2023-08-06T04:13:05;100524.19;;;17.90;100.00
19831;BME280;10076;52.008;4.708;2023-08-06T04:15:30;100533.81;;;17.75;100.00
19831;BME280;10076;52.008;4.708;2023-08-06T04:17:58;100538.25;;;17.59;100.00
19831;BME280;10076;52.008;4.708;2023-08-06T04:20:23;100536.16;;;17.45;100.00
19831;BME280;10076;52.008;4.708;2023-08-06T04:22:48;100541.72;;;17.26;100.00
19831;BME280;10076;52.008;4.708;2023-08-06T04:25:14;100556.16;;;17.16;100.00
19831;BME280;10076;52.008;4.708;2023-08-06T04:27:39;100560.28;;;16.93;100.00
19831;BME280;10076;52.008;4.708;2023-08-06T04:30:07;100555.47;;;16.96;100.00
19831;BME280;10076;52.008;4.708;2023-08-06T04:32:32;100563.03;;;17.01;100.00
19831;BME280;10076;52.008;4.708;2023-08-06T04:34:58;100560.16;;;16.94;100.00
19831;BME280;10076;52.008;4.708;2023-08-06T04:37:23;100565.69;;;17.01;100.00
19831;BME280;10076;52.008;4.708;2023-08-06T04:39:49;100567.72;;;16.81;100.00
19831;BME280;10076;52.008;4.708;2023-08-06T04:42:14;100579.00;;;16.75;100.00
19831;BME280;10076;52.008;4.708;2023-08-06T04:44:39;100575.09;;;16.70;100.00
19831;BME280;10076;52.008;4.708;2023-08-06T04:47:05;100579.00;;;16.75;100.00
19831;BME280;10076;52.008;4.708;2023-08-06T04:49:30;100567.72;;;16.81;100.00
19831;BME280;10076;52.008;4.708;2023-08-06T04:51:55;100572.06;;;16.82;100.00
19831;BME280;10076;52.008;4.708;2023-08-06T04:54:21;100577.16;;;16.93;100.00
19831;BME280;10076;52.008;4.708;2023-08-06T04:56:46;100571.81;;;16.76;100.00
19831;BME280;10076;52.008;4.708;2023-08-06T04:59:11;100568.31;;;16.75;100.00
19831;BME280;10076;52.008;4.708;2023-08-06T05:01:37;100572.09;;;16.90;100.00
19831;BME280;10076;52.008;4.708;2023-08-06T05:04:02;100580.50;;;16.78;100.00
19831;BME280;10076;52.008;4.708;2023-08-06T05:06:27;100583.69;;;16.64;100.00
19831;BME280;10076;52.008;4.708;2023-08-06T05:08:53;100581.56;;;16.67;100.00
19831;BME280;10076;52.008;4.708;2023-08-06T05:11:18;100577.91;;;16.68;100.00
19831;BME280;10076;52.008;4.708;2023-08-06T05:13:43;100581.88;;;16.64;100.00
19831;BME280;10076;52.008;4.708;2023-08-06T05:16:08;100580.44;;;16.70;100.00
19831;BME280;10076;52.008;4.708;2023-08-06T05:18:34;100591.56;;;16.83;100.00
19831;BME280;10076;52.008;4.708;2023-08-06T05:20:59;100583.94;;;16.53;100.00
19831;BME280;10076;52.008;4.708;2023-08-06T05:23:25;100597.25;;;16.36;100.00
19831;BME280;10076;52.008;4.708;2023-08-06T05:25:50;100598.25;;;16.35;100.00
19831;BME280;10076;52.008;4.708;2023-08-06T05:28:15;100602.22;;;16.48;100.00
19831;BME280;10076;52.008;4.708;2023-08-06T05:30:41;100615.97;;;16.44;100.00
19831;BME280;10076;52.008;4.708;2023-08-06T05:33:06;100611.19;;;16.47;100.00
19831;BME280;10076;52.008;4.708;2023-08-06T05:35:32;100631.25;;;16.51;100.00
19831;BME280;10076;52.008;4.708;2023-08-06T05:37:57;100630.38;;;16.51;100.00
19831;BME280;10076;52.008;4.708;2023-08-06T05:40:23;100620.09;;;16.56;100.00
19831;BME280;10076;52.008;4.708;2023-08-06T05:42:50;100633.91;;;16.51;100.00
19831;BME280;10076;52.008;4.708;2023-08-06T05:45:15;100639.78;;;16.55;100.00
19831;BME280;10076;52.008;4.708;2023-08-06T05:47:41;100644.97;;;16.73;100.00
19831;BME280;10076;52.008;4.708;2023-08-06T05:50:07;100649.63;;;16.71;100.00
19831;BME280;10076;52.008;4.708;2023-08-06T05:52:32;100648.53;;;16.82;100.00
19831;BME280;10076;52.008;4.708;2023-08-06T05:54:57;100648.78;;;16.88;100.00
19831;BME280;10076;52.008;4.708;2023-08-06T05:57:23;100658.75;;;16.69;100.00
19831;BME280;10076;52.008;4.708;2023-08-06T05:59:48;100647.72;;;16.81;100.00
19831;BME280;10076;52.008;4.708;2023-08-06T06:02:13;100657.63;;;16.89;100.00
19831;BME280;10076;52.008;4.708;2023-08-06T06:04:40;100653.88;;;16.64;100.00
19831;BME280;10076;52.008;4.708;2023-08-06T06:07:05;100663.03;;;16.62;100.00
19831;BME280;10076;52.008;4.708;2023-08-06T06:09:31;100660.03;;;16.65;100.00
19831;BME280;10076;52.008;4.708;2023-08-06T06:11:56;100668.69;;;16.50;100.00
19831;BME280;10076;52.008;4.708;2023-08-06T06:14:21;100673.03;;;16.77;100.00
19831;BME280;10076;52.008;4.708;2023-08-06T06:16:47;100674.06;;;16.67;100.00
19831;BME280;10076;52.008;4.708;2023-08-06T06:19:12;100675.81;;;16.76;100.00
19831;BME280;10076;52.008;4.708;2023-08-06T06:21:38;100682.84;;;16.77;100.00
19831;BME280;10076;52.008;4.708;2023-08-06T06:24:04;100683.50;;;16.61;100.00
19831;BME280;10076;52.008;4.708;2023-08-06T06:26:30;100687.25;;;16.68;100.00
19831;BME280;10076;52.008;4.708;2023-08-06T06:28:55;100691.00;;;16.75;100.00
19831;BME280;10076;52.008;4.708;2023-08-06T06:31:21;100697.25;;;16.66;100.00
19831;BME280;10076;52.008;4.708;2023-08-06T06:33:46;100694.63;;;16.74;100.00
19831;BME280;10076;52.008;4.708;2023-08-06T06:36:11;100698.56;;;16.80;100.00
19831;BME280;10076;52.008;4.708;2023-08-06T06:38:37;100693.81;;;16.91;100.00
19831;BME280;10076;52.008;4.708;2023-08-06T06:41:03;100707.69;;;16.95;100.00
19831;BME280;10076;52.008;4.708;2023-08-06T06:43:29;100703.34;;;16.94;100.00
19831;BME280;10076;52.008;4.708;2023-08-06T06:46:00;100714.00;;;16.94;100.00
19831;BME280;10076;52.008;4.708;2023-08-06T06:48:32;100709.53;;;17.12;100.00
19831;BME280;10076;52.008;4.708;2023-08-06T06:50:57;100709.06;;;16.99;100.00
19831;BME280;10076;52.008;4.708;2023-08-06T06:53:23;100723.03;;;17.28;100.00
19831;BME280;10076;52.008;4.708;2023-08-06T06:55:56;100719.38;;;17.29;100.00
19831;BME280;10076;52.008;4.708;2023-08-06T06:58:22;100721.44;;;17.17;100.00
19831;BME280;10076;52.008;4.708;2023-08-06T07:00:47;100723.25;;;16.99;100.00
19831;BME280;10076;52.008;4.708;2023-08-06T07:03:14;100718.69;;;16.92;100.00
19831;BME280;10076;52.008;4.708;2023-08-06T07:05:39;100732.78;;;17.02;100.00
19831;BME280;10076;52.008;4.708;2023-08-06T07:08:05;100731.25;;;16.99;100.00
19831;BME280;10076;52.008;4.708;2023-08-06T07:10:30;100726.53;;;17.11;100.00
19831;BME280;10076;52.008;4.708;2023-08-06T07:12:55;100729.13;;;17.20;100.00
19831;BME280;10076;52.008;4.708;2023-08-06T07:15:21;100726.69;;;17.09;100.00
19831;BME280;10076;52.008;4.708;2023-08-06T07:17:46;100724.06;;;17.27;100.00
19831;BME280;10076;52.008;4.708;2023-08-06T07:20:11;100731.22;;;17.26;100.00
19831;BME280;10076;52.008;4.708;2023-08-06T07:22:37;100738.22;;;17.27;100.00
19831;BME280;10076;52.008;4.708;2023-08-06T07:25:02;100729.66;;;17.24;100.00
19831;BME280;10076;52.008;4.708;2023-08-06T07:27:28;100732.66;;;17.21;100.00
19831;BME280;10076;52.008;4.708;2023-08-06T07:29:53;100736.63;;;17.34;100.00
19831;BME280;10076;52.008;4.708;2023-08-06T07:32:18;100736.09;;;17.31;100.00
19831;BME280;10076;52.008;4.708;2023-08-06T07:34:44;100736.56;;;17.43;100.00
19831;BME280;10076;52.008;4.708;2023-08-06T07:37:09;100742.03;;;17.42;100.00
19831;BME280;10076;52.008;4.708;2023-08-06T07:39:34;100740.44;;;17.32;100.00
19831;BME280;10076;52.008;4.708;2023-08-06T07:42:00;100743.59;;;17.44;100.00
19831;BME280;10076;52.008;4.708;2023-08-06T07:44:27;100740.97;;;17.52;100.00
19831;BME280;10076;52.008;4.708;2023-08-06T07:46:52;100752.25;;;17.46;100.00
19831;BME280;10076;52.008;4.708;2023-08-06T07:49:18;100744.84;;;17.40;100.00
19831;BME280;10076;52.008;4.708;2023-08-06T07:51:43;100742.84;;;17.60;100.00
19831;BME280;10076;52.008;4.708;2023-08-06T07:54:08;100746.00;;;17.55;100.00
19831;BME280;10076;52.008;4.708;2023-08-06T07:56:34;100748.88;;;17.62;100.00
19831;BME280;10076;52.008;4.708;2023-08-06T07:59:01;100746.00;;;17.55;100.00
19831;BME280;10076;52.008;4.708;2023-08-06T08:01:26;100744.63;;;17.51;100.00
19831;BME280;10076;52.008;4.708;2023-08-06T08:03:51;100758.28;;;17.48;100.00
19831;BME280;10076;52.008;4.708;2023-08-06T08:06:17;100745.06;;;17.64;100.00
19831;BME280;10076;52.008;4.708;2023-08-06T08:08:42;100748.72;;;17.63;100.00
19831;BME280;10076;52.008;4.708;2023-08-06T08:11:07;100745.81;;;17.74;100.00
19831;BME280;10076;52.008;4.708;2023-08-06T08:13:33;100740.53;;;17.82;100.00
19831;BME280;10076;52.008;4.708;2023-08-06T08:15:59;100746.25;;;17.87;100.00
19831;BME280;10076;52.008;4.708;2023-08-06T08:18:25;100744.72;;;17.85;100.00
19831;BME280;10076;52.008;4.708;2023-08-06T08:20:50;100746.19;;;17.79;100.00
19831;BME280;10076;52.008;4.708;2023-08-06T08:23:16;100744.28;;;17.97;100.00
19831;BME280;10076;52.008;4.708;2023-08-06T08:25:41;100745.53;;;17.85;100.00
19831;BME280;10076;52.008;4.708;2023-08-06T08:28:07;100752.00;;;18.00;100.00
19831;BME280;10076;52.008;4.708;2023-08-06T08:30:32;100754.31;;;17.95;100.00
19831;BME280;10076;52.008;4.708;2023-08-06T08:32:58;100759.34;;;17.98;100.00
19831;BME280;10076;52.008;4.708;2023-08-06T08:35:23;100759.88;;;18.01;100.00
19831;BME280;10076;52.008;4.708;2023-08-06T08:37:48;100764.38;;;18.01;100.00
19831;BME280;10076;52.008;4.708;2023-08-06T08:40:15;100759.34;;;17.98;100.00
19831;BME280;10076;52.008;4.708;2023-08-06T08:42:40;100762.06;;;18.06;100.00
19831;BME280;10076;52.008;4.708;2023-08-06T08:45:13;100769.81;;;18.17;100.00
19831;BME280;10076;52.008;4.708;2023-08-06T08:47:40;100768.06;;;18.25;100.00
19831;BME280;10076;52.008;4.708;2023-08-06T08:50:08;100768.66;;;18.37;100.00
19831;BME280;10076;52.008;4.708;2023-08-06T08:52:33;100764.31;;;18.44;100.00
19831;BME280;10076;52.008;4.708;2023-08-06T08:55:01;100766.28;;;18.67;100.00
19831;BME280;10076;52.008;4.708;2023-08-06T08:57:26;100762.16;;;18.80;100.00
19831;BME280;10076;52.008;4.708;2023-08-06T08:59:52;100767.31;;;18.74;100.00
19831;BME280;10076;52.008;4.708;2023-08-06T09:02:18;100770.34;;;18.87;100.00
19831;BME280;10076;52.008;4.708;2023-08-06T09:04:47;100772.03;;;18.80;100.00
19831;BME280;10076;52.008;4.708;2023-08-06T09:07:17;100780.75;;;18.98;100.00
19831;BME280;10076;52.008;4.708;2023-08-06T09:09:43;100778.25;;;18.88;100.00
19831;BME280;10076;52.008;4.708;2023-08-06T09:12:14;100781.34;;;18.68;100.00
19831;BME280;10076;52.008;4.708;2023-08-06T09:14:40;100789.97;;;18.54;100.00
19831;BME280;10076;52.008;4.708;2023-08-06T09:17:05;100786.06;;;18.49;100.00
19831;BME280;10076;52.008;4.708;2023-08-06T09:19:31;100790.19;;;18.69;100.00
19831;BME280;10076;52.008;4.708;2023-08-06T09:21:57;100784.53;;;18.72;100.00
19831;BME280;10076;52.008;4.708;2023-08-06T09:24:22;100791.66;;;19.04;100.00
19831;BME280;10076;52.008;4.708;2023-08-06T09:26:48;100794.13;;;18.98;100.00
19831;BME280;10076;52.008;4.708;2023-08-06T09:29:13;100797.78;;;19.22;100.00
19831;BME280;10076;52.008;4.708;2023-08-06T09:31:48;100793.66;;;19.02;100.00
19831;BME280;10076;52.008;4.708;2023-08-06T09:34:17;100796.56;;;19.09;100.00
19831;BME280;10076;52.008;4.708;2023-08-06T09:36:46;100802.44;;;19.20;100.00
19831;BME280;10076;52.008;4.708;2023-08-06T09:39:16;100802.63;;;19.19;100.00
19831;BME280;10076;52.008;4.708;2023-08-06T09:41:42;100808.16;;;19.25;100.00
19831;BME280;10076;52.008;4.708;2023-08-06T09:44:19;100812.88;;;19.39;100.00
19831;BME280;10076;52.008;4.708;2023-08-06T09:46:51;100814.22;;;19.43;100.00
19831;BME280;10076;52.008;4.708;2023-08-06T09:49:42;100812.72;;;19.56;100.00
19831;BME280;10076;52.008;4.708;2023-08-06T09:52:11;100822.47;;;19.89;100.00
19831;BME280;10076;52.008;4.708;2023-08-06T09:54:37;100829.38;;;20.08;100.00
19831;BME280;10076;52.008;4.708;2023-08-06T09:57:02;100827.34;;;20.25;100.00
19831;BME280;10076;52.008;4.708;2023-08-06T09:59:28;100826.94;;;20.60;100.00
19831;BME280;10076;52.008;4.708;2023-08-06T10:01:54;100835.13;;;20.75;100.00
19831;BME280;10076;52.008;4.708;2023-08-06T10:04:20;100839.50;;;21.74;100.00
19831;BME280;10076;52.008;4.708;2023-08-06T10:06:49;100830.84;;;22.60;100.00
19831;BME280;10076;52.008;4.708;2023-08-06T10:09:15;100837.44;;;22.58;100.00
19831;BME280;10076;52.008;4.708;2023-08-06T10:11:42;100840.81;;;22.01;100.00
19831;BME280;10076;52.008;4.708;2023-08-06T10:14:18;100835.00;;;22.12;100.00
19831;BME280;10076;52.008;4.708;2023-08-06T10:16:45;100839.00;;;22.67;100.00
19831;BME280;10076;52.008;4.708;2023-08-06T10:19:12;100840.50;;;22.84;100.00
19831;BME280;10076;52.008;4.708;2023-08-06T10:21:38;100840.72;;;22.31;100.00
19831;BME280;10076;52.008;4.708;2023-08-06T10:24:06;100841.84;;;21.77;100.00
19831;BME280;10076;52.008;4.708;2023-08-06T10:26:34;100838.13;;;21.48;100.00
19831;BME280;10076;52.008;4.708;2023-08-06T10:29:00;100844.88;;;21.44;100.00
19831;BME280;10076;52.008;4.708;2023-08-06T10:32:02;100841.22;;;22.12;100.00
19831;BME280;10076;52.008;4.708;2023-08-06T10:34:53;100847.91;;;22.38;100.00
19831;BME280;10076;52.008;4.708;2023-08-06T10:37:19;100841.13;;;21.83;100.00
19831;BME280;10076;52.008;4.708;2023-08-06T10:39:50;100848.34;;;21.60;100.00
19831;BME280;10076;52.008;4.708;2023-08-06T10:42:20;100840.28;;;22.05;100.00
19831;BME280;10076;52.008;4.708;2023-08-06T10:45:11;100855.00;;;23.61;100.00
19831;BME280;10076;52.008;4.708;2023-08-06T10:47:40;100846.44;;;24.68;100.00
19831;BME280;10076;52.008;4.708;2023-08-06T10:50:07;100856.63;;;26.39;100.00
19831;BME280;10076;52.008;4.708;2023-08-06T10:52:34;100864.72;;;26.06;100.00
19831;BME280;10076;52.008;4.708;2023-08-06T10:54:59;100859.56;;;25.05;100.00
19831;BME280;10076;52.008;4.708;2023-08-06T10:57:25;100858.44;;;24.38;100.00
19831;BME280;10076;52.008;4.708;2023-08-06T10:59:50;100855.75;;;24.59;100.00
19831;BME280;10076;52.008;4.708;2023-08-06T11:02:16;100866.34;;;24.95;100.00
19831;BME280;10076;52.008;4.708;2023-08-06T11:04:41;100862.81;;;25.75;100.00
19831;BME280;10076;52.008;4.708;2023-08-06T11:07:07;100858.91;;;26.29;100.00
19831;BME280;10076;52.008;4.708;2023-08-06T11:09:32;100864.25;;;27.13;100.00
19831;BME280;10076;52.008;4.708;2023-08-06T11:11:57;100863.50;;;26.54;100.00
19831;BME280;10076;52.008;4.708;2023-08-06T11:14:23;100867.31;;;25.68;100.00
19831;BME280;10076;52.008;4.708;2023-08-06T11:16:48;100861.38;;;24.64;100.00
19831;BME280;10076;52.008;4.708;2023-08-06T11:19:15;100868.25;;;24.19;100.00
19831;BME280;10076;52.008;4.708;2023-08-06T11:21:41;100871.75;;;24.95;100.00
19831;BME280;10076;52.008;4.708;2023-08-06T11:24:10;100867.03;;;25.03;100.00
19831;BME280;10076;52.008;4.708;2023-08-06T11:26:36;100866.31;;;25.15;100.00
19831;BME280;10076;52.008;4.708;2023-08-06T11:29:02;100864.47;;;25.88;100.00
19831;BME280;10076;52.008;4.708;2023-08-06T11:31:28;100869.97;;;26.40;100.00
19831;BME280;10076;52.008;4.708;2023-08-06T11:33:55;100870.16;;;27.91;100.00
19831;BME280;10076;52.008;4.708;2023-08-06T11:36:32;100875.28;;;28.60;100.00
19831;BME280;10076;52.008;4.708;2023-08-06T11:39:01;100871.91;;;29.07;100.00
19831;BME280;10076;52.008;4.708;2023-08-06T11:41:28;100875.47;;;29.90;100.00
19831;BME280;10076;52.008;4.708;2023-08-06T11:43:54;100873.97;;;30.92;98.48
19831;BME280;10076;52.008;4.708;2023-08-06T11:46:19;100879.78;;;31.69;84.02
19831;BME280;10076;52.008;4.708;2023-08-06T11:51:17;100881.41;;;31.54;83.96
19831;BME280;10076;52.008;4.708;2023-08-06T11:53:48;100878.97;;;30.83;81.52
19831;BME280;10076;52.008;4.708;2023-08-06T11:56:14;100874.94;;;31.20;82.12
19831;BME280;10076;52.008;4.708;2023-08-06T11:58:41;100871.84;;;31.28;81.72
19831;BME280;10076;52.008;4.708;2023-08-06T12:01:06;100864.31;;;32.02;78.60
19831;BME280;10076;52.008;4.708;2023-08-06T12:03:32;100873.00;;;32.60;73.94
19831;BME280;10076;52.008;4.708;2023-08-06T12:05:57;100876.72;;;32.21;72.97
19831;BME280;10076;52.008;4.708;2023-08-06T12:08:26;100874.50;;;32.51;73.72
19831;BME280;10076;52.008;4.708;2023-08-06T12:10:52;100877.16;;;33.54;70.16
19831;BME280;10076;52.008;4.708;2023-08-06T12:13:19;100885.53;;;32.56;72.21
19831;BME280;10076;52.008;4.708;2023-08-06T12:15:44;100879.91;;;30.78;83.31
19831;BME280;10076;52.008;4.708;2023-08-06T12:18:10;100884.44;;;28.90;99.49
19831;BME280;10076;52.008;4.708;2023-08-06T12:20:36;100874.81;;;27.40;100.00
19831;BME280;10076;52.008;4.708;2023-08-06T12:23:01;100882.63;;;27.04;100.00
19831;BME280;10076;52.008;4.708;2023-08-06T12:25:26;100880.94;;;28.03;100.00
19831;BME280;10076;52.008;4.708;2023-08-06T12:27:52;100881.63;;;28.30;100.00
19831;BME280;10076;52.008;4.708;2023-08-06T12:30:17;100879.78;;;27.49;100.00
19831;BME280;10076;52.008;4.708;2023-08-06T12:32:43;100884.53;;;26.78;100.00
19831;BME280;10076;52.008;4.708;2023-08-06T12:35:08;100891.56;;;25.95;100.00
19831;BME280;10076;52.008;4.708;2023-08-06T12:37:33;100886.78;;;25.04;100.00
19831;BME280;10076;52.008;4.708;2023-08-06T12:39:59;100893.34;;;24.61;100.00
19831;BME280;10076;52.008;4.708;2023-08-06T12:42:24;100896.41;;;24.31;100.00
19831;BME280;10076;52.008;4.708;2023-08-06T12:44:50;100906.63;;;24.56;100.00
19831;BME280;10076;52.008;4.708;2023-08-06T12:47:16;100901.81;;;24.31;100.00